sensor_id;sensor_type;location;lat;lon;timestamp;pressure;altitude;pressure_sealevel;temperature;humidity
16016;BME280;8112;53.592;10.184;2023-03-12T00:04:31;100762.13;;;1.28;100.00
16016;BME280;8112;53.592;10.184;2023-03-12T00:09:35;100769.72;;;1.38;100.00
16016;BME280;8112;53.592;10.184;2023-03-12T00:14:37;100766.41;;;1.31;100.00
16016;BME280;8112;53.592;10.184;2023-03-12T00:19:40;100767.50;;;1.19;100.00
16016;BME280;8112;53.592;10.184;2023-03-12T00:24:42;100769.28;;;1.16;100.00
16016;BME280;8112;53.592;10.184;2023-03-12T00:29:44;100764.06;;;1.17;100.00
16016;BME280;8112;53.592;10.184;2023-03-12T00:34:50;100760.72;;;1.12;100.00
16016;BME280;8112;53.592;10.184;2023-03-12T00:39:52;100759.06;;;1.08;100.00
16016;BME280;8112;53.592;10.184;2023-03-12T00:44:54;100773.25;;;0.88;100.00
16016;BME280;8112;53.592;10.184;2023-03-12T00:49:57;100777.78;;;0.77;100.00
16016;BME280;8112;53.592;10.184;2023-03-12T00:54:59;100773.38;;;0.82;100.00
16016;BME280;8112;53.592;10.184;2023-03-12T01:00:02;100775.03;;;0.86;100.00
16016;BME280;8112;53.592;10.184;2023-03-12T01:05:11;100776.72;;;0.87;100.00
16016;BME280;8112;53.592;10.184;2023-03-12T01:10:14;100778.50;;;0.85;100.00
16016;BME280;8112;53.592;10.184;2023-03-12T01:15:19;100781.84;;;0.90;100.00
16016;BME280;8112;53.592;10.184;2023-03-12T01:20:22;100793.09;;;0.91;100.00
16016;BME280;8112;53.592;10.184;2023-03-12T01:25:24;100791.25;;;0.97;100.00
16016;BME280;8112;53.592;10.184;2023-03-12T01:30:27;100800.50;;;1.12;100.00
16016;BME280;8112;53.592;10.184;2023-03-12T01:35:34;100789.38;;;1.06;100.00
16016;BME280;8112;53.592;10.184;2023-03-12T01:40:36;100788.66;;;0.97;100.00
16016;BME280;8112;53.592;10.184;2023-03-12T01:45:59;100787.91;;;0.92;100.00
16016;BME280;8112;53.592;10.184;2023-03-12T01:51:05;100800.88;;;0.92;100.00
16016;BME280;8112;53.592;10.184;2023-03-12T01:56:10;100803.22;;;1.05;100.00
16016;BME280;8112;53.592;10.184;2023-03-12T02:01:15;100800.63;;;1.05;100.00
16016;BME280;8112;53.592;10.184;2023-03-12T02:06:24;100812.03;;;0.96;100.00
16016;BME280;8112;53.592;10.184;2023-03-12T02:11:27;100811.19;;;0.95;100.00
16016;BME280;8112;53.592;10.184;2023-03-12T02:16:29;100815.44;;;1.01;100.00
16016;BME280;8112;53.592;10.184;2023-03-12T02:21:33;100808.50;;;1.00;100.00
16016;BME280;8112;53.592;10.184;2023-03-12T02:26:38;100808.50;;;1.00;100.00
16016;BME280;8112;53.592;10.184;2023-03-12T02:31:43;100812.97;;;0.93;100.00
16016;BME280;8112;53.592;10.184;2023-03-12T02:36:47;100812.78;;;1.03;100.00
16016;BME280;8112;53.592;10.184;2023-03-12T02:41:53;100806.66;;;1.07;100.00
16016;BME280;8112;53.592;10.184;2023-03-12T02:46:59;100809.44;;;0.97;100.00
16016;BME280;8112;53.592;10.184;2023-03-12T02:52:02;100816.22;;;1.05;100.00
16016;BME280;8112;53.592;10.184;2023-03-12T02:57:05;100814.69;;;0.93;100.00
16016;BME280;8112;53.592;10.184;2023-03-12T03:02:08;100821.47;;;1.02;100.00
16016;BME280;8112;53.592;10.184;2023-03-12T03:07:12;100817.28;;;0.94;100.00
16016;BME280;8112;53.592;10.184;2023-03-12T03:12:16;100818.81;;;1.05;100.00
16016;BME280;8112;53.592;10.184;2023-03-12T03:17:18;100814.31;;;1.14;100.00
16016;BME280;8112;53.592;10.184;2023-03-12T03:22:22;100813.56;;;1.08;100.00
16016;BME280;8112;53.592;10.184;2023-03-12T03:27:26;100810.81;;;1.17;100.00
16016;BME280;8112;53.592;10.184;2023-03-12T03:32:28;100812.53;;;1.17;100.00
16016;BME280;8112;53.592;10.184;2023-03-12T03:37:30;100801.38;;;1.13;100.00
16016;BME280;8112;53.592;10.184;2023-03-12T03:42:33;100803.16;;;1.08;100.00
16016;BME280;8112;53.592;10.184;2023-03-12T03:47:35;100799.03;;;0.97;100.00
16016;BME280;8112;53.592;10.184;2023-03-12T03:52:37;100816.47;;;0.89;100.00
16016;BME280;8112;53.592;10.184;2023-03-12T03:57:41;100826.16;;;0.79;100.00
16016;BME280;8112;53.592;10.184;2023-03-12T04:02:43;100809.06;;;0.69;100.00
16016;BME280;8112;53.592;10.184;2023-03-12T04:07:47;100808.19;;;0.68;100.00
16016;BME280;8112;53.592;10.184;2023-03-12T04:12:53;100810.88;;;0.62;100.00
16016;BME280;8112;53.592;10.184;2023-03-12T04:17:56;100806.69;;;0.55;100.00
16016;BME280;8112;53.592;10.184;2023-03-12T04:23:00;100811.97;;;0.49;100.00
16016;BME280;8112;53.592;10.184;2023-03-12T04:28:04;100799.97;;;0.41;100.00
16016;BME280;8112;53.592;10.184;2023-03-12T04:33:07;100800.09;;;0.32;100.00
16016;BME280;8112;53.592;10.184;2023-03-12T04:38:09;100796.78;;;0.24;100.00
16016;BME280;8112;53.592;10.184;2023-03-12T04:43:12;100798.63;;;0.16;100.00
16016;BME280;8112;53.592;10.184;2023-03-12T04:48:15;100785.03;;;-0.01;100.00
16016;BME280;8112;53.592;10.184;2023-03-12T04:53:21;100790.28;;;-0.04;100.00
16016;BME280;8112;53.592;10.184;2023-03-12T04:58:25;100777.44;;;-0.13;100.00
16016;BME280;8112;53.592;10.184;2023-03-12T05:03:28;100776.66;;;-0.20;100.00
16016;BME280;8112;53.592;10.184;2023-03-12T05:08:31;100778.38;;;-0.17;100.00
16016;BME280;8112;53.592;10.184;2023-03-12T05:13:34;100779.19;;;-0.15;100.00
16016;BME280;8112;53.592;10.184;2023-03-12T05:18:36;100788.66;;;-0.12;100.00
16016;BME280;8112;53.592;10.184;2023-03-12T05:23:38;100798.88;;;-0.03;100.00
16016;BME280;8112;53.592;10.184;2023-03-12T05:28:44;100795.41;;;-0.02;100.00
16016;BME280;8112;53.592;10.184;2023-03-12T05:33:46;100795.41;;;0.01;100.00
16016;BME280;8112;53.592;10.184;2023-03-12T05:38:49;100804.06;;;-0.03;100.00
16016;BME280;8112;53.592;10.184;2023-03-12T05:43:56;100799.72;;;0.01;100.00
16016;BME280;8112;53.592;10.184;2023-03-12T05:48:58;100807.63;;;-0.09;100.00
16016;BME280;8112;53.592;10.184;2023-03-12T05:54:01;100789.34;;;-0.01;100.00
16016;BME280;8112;53.592;10.184;2023-03-12T05:59:05;100791.72;;;0.14;100.00
16016;BME280;8112;53.592;10.184;2023-03-12T06:04:07;100791.84;;;0.07;100.00
16016;BME280;8112;53.592;10.184;2023-03-12T06:09:09;100789.06;;;0.21;100.00
16016;BME280;8112;53.592;10.184;2023-03-12T06:14:13;100773.34;;;0.30;100.00
16016;BME280;8112;53.592;10.184;2023-03-12T06:19:15;100775.66;;;0.49;100.00
16016;BME280;8112;53.592;10.184;2023-03-12T06:24:20;100773.56;;;0.71;100.00
16016;BME280;8112;53.592;10.184;2023-03-12T06:29:35;100775.88;;;0.87;100.00
16016;BME280;8112;53.592;10.184;2023-03-12T06:34:37;100780.97;;;0.93;100.00
16016;BME280;8112;53.592;10.184;2023-03-12T06:39:39;100774.97;;;0.89;100.00
16016;BME280;8112;53.592;10.184;2023-03-12T06:44:42;100769.00;;;0.84;100.00
16016;BME280;8112;53.592;10.184;2023-03-12T06:49:44;100765.78;;;0.69;100.00
16016;BME280;8112;53.592;10.184;2023-03-12T06:54:45;100767.47;;;0.74;100.00
16016;BME280;8112;53.592;10.184;2023-03-12T06:59:48;100756.75;;;0.92;100.00
16016;BME280;8112;53.592;10.184;2023-03-12T07:04:54;100751.25;;;1.08;100.00
16016;BME280;8112;53.592;10.184;2023-03-12T07:09:56;100752.22;;;1.89;100.00
16016;BME280;8112;53.592;10.184;2023-03-12T07:14:59;100757.06;;;2.04;100.00
16016;BME280;8112;53.592;10.184;2023-03-12T07:20:01;100750.63;;;2.19;100.00
16016;BME280;8112;53.592;10.184;2023-03-12T07:25:03;100745.19;;;2.30;100.00
16016;BME280;8112;53.592;10.184;2023-03-12T07:30:08;100742.19;;;2.47;100.00
16016;BME280;8112;53.592;10.184;2023-03-12T07:35:10;100739.09;;;2.31;100.00
16016;BME280;8112;53.592;10.184;2023-03-12T07:40:12;100741.41;;;2.42;100.00
16016;BME280;8112;53.592;10.184;2023-03-12T07:45:15;100733.41;;;2.50;100.00
16016;BME280;8112;53.592;10.184;2023-03-12T07:50:18;100737.31;;;2.68;100.00
16016;BME280;8112;53.592;10.184;2023-03-12T07:55:20;100730.84;;;2.83;100.00
16016;BME280;8112;53.592;10.184;2023-03-12T08:00:23;100727.44;;;2.81;100.00
16016;BME280;8112;53.592;10.184;2023-03-12T08:05:25;100721.13;;;3.21;100.00
16016;BME280;8112;53.592;10.184;2023-03-12T08:10:27;100722.56;;;3.32;100.00
16016;BME280;8112;53.592;10.184;2023-03-12T08:15:30;100721.44;;;3.09;100.00
16016;BME280;8112;53.592;10.184;2023-03-12T08:20:32;100718.22;;;3.61;100.00
16016;BME280;8112;53.592;10.184;2023-03-12T08:25:34;100713.88;;;3.90;100.00
16016;BME280;8112;53.592;10.184;2023-03-12T08:30:38;100718.31;;;4.14;100.00
16016;BME280;8112;53.592;10.184;2023-03-12T08:35:39;100704.53;;;4.36;100.00
16016;BME280;8112;53.592;10.184;2023-03-12T08:40:41;100691.50;;;4.36;100.00
16016;BME280;8112;53.592;10.184;2023-03-12T08:45:45;100689.34;;;4.49;100.00
16016;BME280;8112;53.592;10.184;2023-03-12T08:50:47;100685.38;;;4.37;100.00
16016;BME280;8112;53.592;10.184;2023-03-12T08:55:51;100694.50;;;4.76;100.00
16016;BME280;8112;53.592;10.184;2023-03-12T09:00:55;100679.34;;;4.86;100.00
16016;BME280;8112;53.592;10.184;2023-03-12T09:06:05;100682.75;;;4.88;100.00
16016;BME280;8112;53.592;10.184;2023-03-12T09:11:10;100674.50;;;4.51;100.00
16016;BME280;8112;53.592;10.184;2023-03-12T09:16:13;100664.13;;;4.74;100.00
16016;BME280;8112;53.592;10.184;2023-03-12T09:21:15;100655.03;;;4.60;100.00
16016;BME280;8112;53.592;10.184;2023-03-12T09:26:17;100642.28;;;4.76;100.00
16016;BME280;8112;53.592;10.184;2023-03-12T09:31:20;100637.81;;;5.04;100.00
16016;BME280;8112;53.592;10.184;2023-03-12T09:36:22;100646.22;;;4.88;100.00
16016;BME280;8112;53.592;10.184;2023-03-12T09:41:25;100625.53;;;5.06;100.00
16016;BME280;8112;53.592;10.184;2023-03-12T09:46:33;100620.69;;;4.96;100.00
16016;BME280;8112;53.592;10.184;2023-03-12T09:51:40;100611.19;;;5.40;100.00
16016;BME280;8112;53.592;10.184;2023-03-12T09:56:43;100593.97;;;5.56;100.00
16016;BME280;8112;53.592;10.184;2023-03-12T10:01:50;100585.34;;;5.77;100.00
16016;BME280;8112;53.592;10.184;2023-03-12T10:07:00;100569.44;;;5.81;100.00
16016;BME280;8112;53.592;10.184;2023-03-12T10:12:11;100551.84;;;5.85;100.00
16016;BME280;8112;53.592;10.184;2023-03-12T10:17:33;100539.84;;;6.22;100.00
16016;BME280;8112;53.592;10.184;2023-03-12T10:22:48;100514.53;;;6.42;100.00
16016;BME280;8112;53.592;10.184;2023-03-12T10:27:52;100489.22;;;6.43;100.00
16016;BME280;8112;53.592;10.184;2023-03-12T10:33:00;100484.31;;;6.54;100.00
16016;BME280;8112;53.592;10.184;2023-03-12T10:38:04;100481.69;;;6.92;100.00
16016;BME280;8112;53.592;10.184;2023-03-12T10:43:11;100463.50;;;6.89;100.00
16016;BME280;8112;53.592;10.184;2023-03-12T10:48:19;100477.50;;;6.88;100.00
16016;BME280;8112;53.592;10.184;2023-03-12T10:53:23;100453.63;;;6.38;100.00
16016;BME280;8112;53.592;10.184;2023-03-12T10:58:31;100447.06;;;6.49;100.00
16016;BME280;8112;53.592;10.184;2023-03-12T11:03:35;100449.50;;;6.13;100.00
16016;BME280;8112;53.592;10.184;2023-03-12T11:08:37;100438.63;;;5.83;100.00
16016;BME280;8112;53.592;10.184;2023-03-12T11:13:40;100424.28;;;5.92;100.00
16016;BME280;8112;53.592;10.184;2023-03-12T11:18:53;100427.75;;;5.92;100.00
16016;BME280;8112;53.592;10.184;2023-03-12T11:24:04;100431.72;;;5.61;100.00
16016;BME280;8112;53.592;10.184;2023-03-12T11:29:16;100439.88;;;5.33;100.00
16016;BME280;8112;53.592;10.184;2023-03-12T11:34:21;100450.84;;;5.20;100.00
16016;BME280;8112;53.592;10.184;2023-03-12T11:39:30;100447.16;;;5.04;100.00
16016;BME280;8112;53.592;10.184;2023-03-12T11:44:38;100421.88;;;5.04;100.00
16016;BME280;8112;53.592;10.184;2023-03-12T11:50:05;100408.06;;;5.64;100.00
16016;BME280;8112;53.592;10.184;2023-03-12T11:55:21;100427.56;;;5.76;100.00
16016;BME280;8112;53.592;10.184;2023-03-12T12:00:34;100427.88;;;5.49;100.00
16016;BME280;8112;53.592;10.184;2023-03-12T12:05:46;100420.47;;;5.38;100.00
16016;BME280;8112;53.592;10.184;2023-03-12T12:10:59;100417.78;;;5.40;100.00
16016;BME280;8112;53.592;10.184;2023-03-12T12:16:18;100417.34;;;5.51;100.00
16016;BME280;8112;53.592;10.184;2023-03-12T12:21:37;100399.75;;;5.54;100.00
16016;BME280;8112;53.592;10.184;2023-03-12T12:26:50;100413.81;;;5.92;100.00
16016;BME280;8112;53.592;10.184;2023-03-12T12:31:54;100387.22;;;5.42;100.00
16016;BME280;8112;53.592;10.184;2023-03-12T12:37:14;100385.72;;;5.36;100.00
16016;BME280;8112;53.592;10.184;2023-03-12T12:42:22;100374.88;;;5.04;100.00
16016;BME280;8112;53.592;10.184;2023-03-12T12:47:33;100367.44;;;5.16;100.00
16016;BME280;8112;53.592;10.184;2023-03-12T12:52:39;100364.91;;;5.14;100.00
16016;BME280;8112;53.592;10.184;2023-03-12T12:57:53;100362.41;;;5.32;100.00
16016;BME280;8112;53.592;10.184;2023-03-12T13:02:57;100356.50;;;5.47;100.00
16016;BME280;8112;53.592;10.184;2023-03-12T13:08:04;100333.31;;;5.60;100.00
16016;BME280;8112;53.592;10.184;2023-03-12T13:13:17;100347.50;;;5.74;100.00
16016;BME280;8112;53.592;10.184;2023-03-12T13:18:22;100342.16;;;5.37;100.00
16016;BME280;8112;53.592;10.184;2023-03-12T13:23:36;100312.66;;;5.14;100.00
16016;BME280;8112;53.592;10.184;2023-03-12T13:29:17;100315.50;;;4.87;100.00
16016;BME280;8112;53.592;10.184;2023-03-12T13:34:46;100298.41;;;4.80;100.00
16016;BME280;8112;53.592;10.184;2023-03-12T13:39:49;100295.06;;;4.97;100.00
16016;BME280;8112;53.592;10.184;2023-03-12T13:44:51;100291.31;;;5.04;100.00
16016;BME280;8112;53.592;10.184;2023-03-12T13:49:55;100276.63;;;5.21;100.00
16016;BME280;8112;53.592;10.184;2023-03-12T13:55:01;100262.44;;;5.07;100.00
16016;BME280;8112;53.592;10.184;2023-03-12T14:00:11;100270.84;;;4.52;100.00
16016;BME280;8112;53.592;10.184;2023-03-12T14:05:18;100272.03;;;4.00;100.00
16016;BME280;8112;53.592;10.184;2023-03-12T14:10:29;100286.09;;;3.96;100.00
16016;BME280;8112;53.592;10.184;2023-03-12T14:15:35;100288.28;;;3.84;100.00
16016;BME280;8112;53.592;10.184;2023-03-12T14:20:50;100274.09;;;3.92;100.00
16016;BME280;8112;53.592;10.184;2023-03-12T14:25:56;100251.66;;;3.88;100.00
16016;BME280;8112;53.592;10.184;2023-03-12T14:31:00;100242.66;;;3.73;100.00
16016;BME280;8112;53.592;10.184;2023-03-12T14:36:06;100232.25;;;3.95;100.00
16016;BME280;8112;53.592;10.184;2023-03-12T14:41:15;100231.03;;;3.81;100.00
16016;BME280;8112;53.592;10.184;2023-03-12T14:46:19;100224.81;;;3.62;100.00
16016;BME280;8112;53.592;10.184;2023-03-12T14:51:23;100227.38;;;3.63;100.00
16016;BME280;8112;53.592;10.184;2023-03-12T14:56:28;100224.59;;;3.90;100.00
16016;BME280;8112;53.592;10.184;2023-03-12T15:01:33;100226.97;;;3.74;100.00
16016;BME280;8112;53.592;10.184;2023-03-12T15:06:43;100204.84;;;3.38;100.00
16016;BME280;8112;53.592;10.184;2023-03-12T15:11:51;100200.75;;;3.33;100.00
16016;BME280;8112;53.592;10.184;2023-03-12T15:16:55;100194.72;;;3.07;100.00
16016;BME280;8112;53.592;10.184;2023-03-12T15:21:57;100196.47;;;2.82;100.00
16016;BME280;8112;53.592;10.184;2023-03-12T15:27:19;100208.47;;;2.61;100.00
16016;BME280;8112;53.592;10.184;2023-03-12T15:32:23;100191.84;;;2.40;100.00
16016;BME280;8112;53.592;10.184;2023-03-12T15:37:27;100187.03;;;2.27;100.00
16016;BME280;8112;53.592;10.184;2023-03-12T15:42:39;100172.88;;;2.11;100.00
16016;BME280;8112;53.592;10.184;2023-03-12T15:47:41;100173.88;;;2.07;100.00
16016;BME280;8112;53.592;10.184;2023-03-12T15:52:57;100178.78;;;2.16;100.00
16016;BME280;8112;53.592;10.184;2023-03-12T15:58:02;100172.13;;;2.07;100.00
16016;BME280;8112;53.592;10.184;2023-03-12T16:03:04;100166.31;;;1.99;100.00
16016;BME280;8112;53.592;10.184;2023-03-12T16:08:13;100167.03;;;2.04;100.00
16016;BME280;8112;53.592;10.184;2023-03-12T16:13:19;100154.84;;;2.06;100.00
16016;BME280;8112;53.592;10.184;2023-03-12T16:18:21;100157.94;;;1.91;100.00
16016;BME280;8112;53.592;10.184;2023-03-12T16:23:23;100157.13;;;1.89;100.00
16016;BME280;8112;53.592;10.184;2023-03-12T16:28:26;100163.03;;;1.94;100.00
16016;BME280;8112;53.592;10.184;2023-03-12T16:33:28;100149.91;;;1.97;100.00
16016;BME280;8112;53.592;10.184;2023-03-12T16:38:29;100147.75;;;1.84;100.00
16016;BME280;8112;53.592;10.184;2023-03-12T16:43:33;100140.53;;;1.93;100.00
16016;BME280;8112;53.592;10.184;2023-03-12T16:48:37;100140.44;;;1.96;100.00
16016;BME280;8112;53.592;10.184;2023-03-12T16:53:38;100141.09;;;2.03;100.00
16016;BME280;8112;53.592;10.184;2023-03-12T16:58:41;100138.22;;;2.10;100.00
16016;BME280;8112;53.592;10.184;2023-03-12T17:03:44;100146.88;;;2.11;100.00
16016;BME280;8112;53.592;10.184;2023-03-12T17:08:49;100142.53;;;2.11;100.00
16016;BME280;8112;53.592;10.184;2023-03-12T17:13:53;100134.44;;;1.94;100.00
16016;BME280;8112;53.592;10.184;2023-03-12T17:18:56;100119.25;;;2.08;100.00
16016;BME280;8112;53.592;10.184;2023-03-12T17:23:57;100144.22;;;2.12;100.00
16016;BME280;8112;53.592;10.184;2023-03-12T17:29:00;100149.03;;;2.25;100.00
16016;BME280;8112;53.592;10.184;2023-03-12T17:34:02;100139.53;;;2.24;100.00
16016;BME280;8112;53.592;10.184;2023-03-12T17:39:04;100134.25;;;2.25;100.00
16016;BME280;8112;53.592;10.184;2023-03-12T17:44:07;100136.81;;;2.27;100.00
16016;BME280;8112;53.592;10.184;2023-03-12T17:49:10;100135.75;;;2.33;100.00
16016;BME280;8112;53.592;10.184;2023-03-12T17:54:12;100126.19;;;2.33;100.00
16016;BME280;8112;53.592;10.184;2023-03-12T17:59:15;100146.09;;;2.34;100.00
16016;BME280;8112;53.592;10.184;2023-03-12T18:04:17;100150.59;;;2.29;100.00
16016;BME280;8112;53.592;10.184;2023-03-12T18:09:19;100146.59;;;2.46;100.00
16016;BME280;8112;53.592;10.184;2023-03-12T18:14:22;100146.63;;;2.44;100.00
16016;BME280;8112;53.592;10.184;2023-03-12T18:19:24;100143.97;;;2.46;100.00
16016;BME280;8112;53.592;10.184;2023-03-12T18:24:26;100143.34;;;2.39;100.00
16016;BME280;8112;53.592;10.184;2023-03-12T18:29:29;100136.28;;;2.42;100.00
16016;BME280;8112;53.592;10.184;2023-03-12T18:34:31;100126.03;;;2.63;100.00
16016;BME280;8112;53.592;10.184;2023-03-12T18:39:32;100123.97;;;2.71;100.00
16016;BME280;8112;53.592;10.184;2023-03-12T18:44:35;100123.97;;;2.71;100.00
16016;BME280;8112;53.592;10.184;2023-03-12T18:49:37;100139.41;;;2.78;100.00
16016;BME280;8112;53.592;10.184;2023-03-12T18:54:39;100149.56;;;2.84;100.00
16016;BME280;8112;53.592;10.184;2023-03-12T18:59:42;100159.13;;;2.83;100.00
16016;BME280;8112;53.592;10.184;2023-03-12T19:04:45;100146.69;;;2.92;100.00
16016;BME280;8112;53.592;10.184;2023-03-12T19:09:47;100145.63;;;2.97;100.00
16016;BME280;8112;53.592;10.184;2023-03-12T19:14:50;100141.88;;;3.05;100.00
16016;BME280;8112;53.592;10.184;2023-03-12T19:19:53;100146.50;;;3.20;100.00
16016;BME280;8112;53.592;10.184;2023-03-12T19:24:54;100127.56;;;3.39;100.00
16016;BME280;8112;53.592;10.184;2023-03-12T19:29:57;100133.75;;;3.59;100.00
16016;BME280;8112;53.592;10.184;2023-03-12T19:34:59;100122.72;;;3.74;100.00
16016;BME280;8112;53.592;10.184;2023-03-12T19:40:01;100124.44;;;3.96;100.00
16016;BME280;8112;53.592;10.184;2023-03-12T19:45:07;100148.06;;;4.34;100.00
16016;BME280;8112;53.592;10.184;2023-03-12T19:50:10;100147.97;;;4.58;100.00
16016;BME280;8112;53.592;10.184;2023-03-12T19:55:12;100154.59;;;4.84;100.00
16016;BME280;8112;53.592;10.184;2023-03-12T20:00:16;100155.66;;;4.80;100.00
16016;BME280;8112;53.592;10.184;2023-03-12T20:05:18;100157.41;;;5.01;100.00
16016;BME280;8112;53.592;10.184;2023-03-12T20:10:20;100163.19;;;5.26;100.00
16016;BME280;8112;53.592;10.184;2023-03-12T20:15:23;100165.38;;;5.17;100.00
16016;BME280;8112;53.592;10.184;2023-03-12T20:20:25;100176.09;;;5.30;100.00
16016;BME280;8112;53.592;10.184;2023-03-12T20:25:27;100159.53;;;5.31;100.00
16016;BME280;8112;53.592;10.184;2023-03-12T20:30:30;100163.91;;;5.49;100.00
16016;BME280;8112;53.592;10.184;2023-03-12T20:35:32;100175.75;;;5.56;100.00
16016;BME280;8112;53.592;10.184;2023-03-12T20:40:33;100173.69;;;5.63;100.00
16016;BME280;8112;53.592;10.184;2023-03-12T20:45:36;100171.50;;;5.54;100.00
16016;BME280;8112;53.592;10.184;2023-03-12T20:50:38;100160.69;;;5.62;100.00
16016;BME280;8112;53.592;10.184;2023-03-12T20:55:40;100168.91;;;5.54;100.00
16016;BME280;8112;53.592;10.184;2023-03-12T21:00:43;100168.25;;;5.68;100.00
16016;BME280;8112;53.592;10.184;2023-03-12T21:05:51;100163.50;;;5.57;100.00
16016;BME280;8112;53.592;10.184;2023-03-12T21:10:53;100163.03;;;5.68;100.00
16016;BME280;8112;53.592;10.184;2023-03-12T21:15:56;100155.50;;;5.79;100.00
16016;BME280;8112;53.592;10.184;2023-03-12T21:21:00;100165.03;;;5.80;100.00
16016;BME280;8112;53.592;10.184;2023-03-12T21:26:04;100157.31;;;5.96;100.00
16016;BME280;8112;53.592;10.184;2023-03-12T21:31:09;100156.81;;;5.88;100.00
16016;BME280;8112;53.592;10.184;2023-03-12T21:36:13;100157.53;;;5.92;100.00
16016;BME280;8112;53.592;10.184;2023-03-12T21:41:16;100156.50;;;5.94;100.00
16016;BME280;8112;53.592;10.184;2023-03-12T21:46:19;100151.88;;;6.01;100.00
16016;BME280;8112;53.592;10.184;2023-03-12T21:51:23;100140.34;;;6.05;100.00
16016;BME280;8112;53.592;10.184;2023-03-12T21:56:26;100140.97;;;6.10;100.00
16016;BME280;8112;53.592;10.184;2023-03-12T22:01:30;100119.63;;;6.01;100.00
16016;BME280;8112;53.592;10.184;2023-03-12T22:06:32;100127.47;;;6.01;100.00
16016;BME280;8112;53.592;10.184;2023-03-12T22:11:34;100119.44;;;6.05;100.00
16016;BME280;8112;53.592;10.184;2023-03-12T22:16:37;100112.50;;;6.04;100.00
16016;BME280;8112;53.592;10.184;2023-03-12T22:21:39;100109.56;;;6.10;100.00
16016;BME280;8112;53.592;10.184;2023-03-12T22:26:42;100096.00;;;6.02;100.00
16016;BME280;8112;53.592;10.184;2023-03-12T22:31:45;100090.28;;;6.13;100.00
16016;BME280;8112;53.592;10.184;2023-03-12T22:36:46;100082.63;;;6.26;100.00
16016;BME280;8112;53.592;10.184;2023-03-12T22:41:48;100073.38;;;6.36;100.00
16016;BME280;8112;53.592;10.184;2023-03-12T22:46:52;100067.69;;;6.28;100.00
16016;BME280;8112;53.592;10.184;2023-03-12T22:51:54;100069.00;;;6.19;100.00
16016;BME280;8112;53.592;10.184;2023-03-12T22:56:55;100066.63;;;6.15;100.00
16016;BME280;8112;53.592;10.184;2023-03-12T23:01:58;100055.34;;;6.14;100.00
16016;BME280;8112;53.592;10.184;2023-03-12T23:07:00;100059.31;;;6.21;100.00
16016;BME280;8112;53.592;10.184;2023-03-12T23:12:02;100047.56;;;6.12;100.00
16016;BME280;8112;53.592;10.184;2023-03-12T23:17:05;100052.19;;;6.07;100.00
16016;BME280;8112;53.592;10.184;2023-03-12T23:22:07;100037.41;;;6.06;100.00
16016;BME280;8112;53.592;10.184;2023-03-12T23:27:09;100039.22;;;6.22;100.00
16016;BME280;8112;53.592;10.184;2023-03-12T23:32:12;100023.03;;;6.31;100.00
16016;BME280;8112;53.592;10.184;2023-03-12T23:37:14;100024.13;;;6.27;100.00
16016;BME280;8112;53.592;10.184;2023-03-12T23:42:15;100016.66;;;6.37;100.00
16016;BME280;8112;53.592;10.184;2023-03-12T23:47:18;100014.78;;;6.23;100.00
16016;BME280;8112;53.592;10.184;2023-03-12T23:52:20;100005.59;;;6.32;100.00
16016;BME280;8112;53.592;10.184;2023-03-12T23:57:22;100009.38;;;6.42;100.00
